Time;durP1;ratioP1;P1;durP2;ratioP2;P2;SDS_P1;SDS_P2;PMS_P1;PMS_P2;Temp;Humidity;BMP_temperature;BMP_pressure;BME280_temperature;BME280_humidity;BME280_pressure;Samples;Min_cycle;Max_cycle;Signal;HPM_P1;HPM_P2
2021/10/21 00:01:23;;;;;;;4.47;2.08;;;15.50;99.90;;;;;;5012791;28;20532;-79
2021/10/21 00:03:48;;;;;;;2.58;1.80;;;15.50;99.90;;;;;;5013385;28;20030;-79
2021/10/21 00:06:14;;;;;;;2.88;2.00;;;15.50;99.90;;;;;;5013485;28;20566;-78
2021/10/21 00:08:40;;;;;;;2.75;1.50;;;15.50;99.90;;;;;;5013736;28;20029;-79
2021/10/21 00:11:05;;;;;;;3.47;2.03;;;15.50;99.90;;;;;;5014325;28;20022;-79
2021/10/21 00:13:31;;;;;;;3.90;1.83;;;15.40;99.90;;;;;;5012768;28;20088;-79
2021/10/21 00:15:57;;;;;;;5.70;2.20;;;15.40;99.90;;;;;;5013545;28;20138;-78
2021/10/21 00:18:23;;;;;;;4.00;1.92;;;15.40;99.90;;;;;;5013453;28;20092;-78
2021/10/21 00:20:48;;;;;;;3.08;2.17;;;15.30;99.90;;;;;;5029640;28;20037;-78
2021/10/21 00:23:14;;;;;;;4.32;2.30;;;15.40;99.90;;;;;;5014144;28;20354;-78
2021/10/21 00:25:40;;;;;;;3.97;2.15;;;15.30;99.90;;;;;;5028960;28;20034;-79
2021/10/21 00:28:05;;;;;;;3.80;2.40;;;15.30;99.90;;;;;;5029716;28;20120;-79
2021/10/21 00:30:31;;;;;;;3.35;1.83;;;15.30;99.90;;;;;;5028563;28;20440;-79
2021/10/21 00:32:57;;;;;;;3.75;1.83;;;15.30;99.90;;;;;;5014336;28;20033;-79
2021/10/21 00:35:23;;;;;;;3.42;2.08;;;15.30;99.90;;;;;;5013086;28;20112;-78
2021/10/21 00:37:49;;;;;;;3.13;2.00;;;15.30;99.90;;;;;;5029108;28;20033;-79
2021/10/21 00:40:15;;;;;;;2.55;1.88;;;15.40;99.90;;;;;;5013868;28;20034;-79
2021/10/21 00:42:40;;;;;;;1.95;1.65;;;15.40;99.90;;;;;;5013487;28;20025;-78
2021/10/21 00:45:07;;;;;;;3.40;2.22;;;15.40;99.90;;;;;;5029318;28;20026;-78
2021/10/21 00:47:33;;;;;;;3.70;1.95;;;15.40;99.90;;;;;;5028657;28;20101;-78
2021/10/21 00:49:58;;;;;;;2.55;2.20;;;15.40;99.90;;;;;;5028975;28;20104;-79
2021/10/21 00:52:24;;;;;;;2.30;1.67;;;15.40;99.90;;;;;;5013093;28;20097;-79
2021/10/21 00:54:52;;;;;;;2.25;1.50;;;15.40;99.90;;;;;;5028255;28;20455;-79
2021/10/21 00:57:18;;;;;;;2.70;1.95;;;15.40;99.90;;;;;;5013056;28;20057;-78
2021/10/21 00:59:47;;;;;;;1.67;1.55;;;15.40;99.90;;;;;;5032323;28;20037;-79
2021/10/21 01:02:13;;;;;;;2.67;1.70;;;15.40;99.90;;;;;;5032544;28;20072;-79
2021/10/21 01:04:39;;;;;;;2.70;1.85;;;15.50;99.90;;;;;;5032012;28;20034;-78
2021/10/21 01:07:06;;;;;;;3.33;1.70;;;15.50;99.90;;;;;;5032679;28;20091;-78
2021/10/21 01:09:34;;;;;;;3.50;1.90;;;15.50;99.90;;;;;;5031889;28;20501;-79
2021/10/21 01:11:59;;;;;;;2.75;2.42;;;15.60;99.90;;;;;;5032591;28;20030;-79
2021/10/21 01:14:25;;;;;;;2.67;1.95;;;15.60;99.90;;;;;;5031822;28;20422;-79
2021/10/21 01:16:51;;;;;;;2.38;1.75;;;15.60;99.90;;;;;;5032792;28;20028;-79
2021/10/21 01:19:19;;;;;;;2.78;2.20;;;15.60;99.90;;;;;;5032223;28;20447;-79
2021/10/21 01:21:46;;;;;;;3.03;2.00;;;15.60;99.90;;;;;;5032116;28;20025;-79
2021/10/21 01:24:12;;;;;;;2.78;2.38;;;15.60;99.90;;;;;;5014070;28;20053;-79
2021/10/21 01:26:38;;;;;;;3.28;2.35;;;15.60;99.90;;;;;;5015349;28;20057;-79
2021/10/21 01:29:04;;;;;;;4.05;2.10;;;15.60;99.90;;;;;;5015527;28;20045;-79
2021/10/21 01:31:30;;;;;;;4.32;2.80;;;15.60;99.90;;;;;;5015059;28;20029;-79
2021/10/21 01:33:55;;;;;;;3.42;2.40;;;15.70;99.90;;;;;;5016534;28;20018;-79
2021/10/21 01:36:21;;;;;;;4.20;2.75;;;15.70;99.90;;;;;;5016097;28;20091;-79
2021/10/21 01:38:46;;;;;;;3.28;2.35;;;15.70;99.90;;;;;;5015199;28;20481;-79
2021/10/21 01:41:12;;;;;;;2.58;2.08;;;15.70;99.90;;;;;;5032175;28;20033;-79
2021/10/21 01:43:45;;;;;;;3.50;2.30;;;15.70;99.90;;;;;;5031389;28;20472;-79
2021/10/21 01:46:11;;;;;;;3.17;2.40;;;15.70;99.90;;;;;;5032140;28;20026;-78
2021/10/21 01:48:37;;;;;;;4.68;2.10;;;15.80;99.90;;;;;;5031623;28;20046;-79
2021/10/21 01:51:04;;;;;;;2.65;1.95;;;15.80;99.90;;;;;;5032378;28;20037;-79
2021/10/21 01:53:30;;;;;;;3.83;1.90;;;15.90;99.90;;;;;;5031495;28;20026;-79
2021/10/21 01:55:55;;;;;;;2.45;1.60;;;16.00;99.90;;;;;;5015644;28;20133;-80
2021/10/21 01:58:21;;;;;;;2.15;1.50;;;16.00;99.90;;;;;;5015938;28;20459;-79
2021/10/21 02:00:47;;;;;;;3.63;1.70;;;16.00;99.90;;;;;;5016050;28;20037;-79
2021/10/21 02:03:13;;;;;;;2.42;1.35;;;16.10;99.90;;;;;;5015700;28;20032;-79
2021/10/21 02:05:38;;;;;;;1.80;1.30;;;16.10;99.90;;;;;;5030970;28;20033;-79
2021/10/21 02:08:04;;;;;;;1.27;1.17;;;16.10;99.90;;;;;;5031669;28;20481;-79
2021/10/21 02:10:30;;;;;;;1.88;1.27;;;16.10;99.90;;;;;;5014744;28;20030;-78
2021/10/21 02:12:56;;;;;;;3.17;1.40;;;16.10;99.90;;;;;;5015666;28;20028;-79
2021/10/21 02:15:22;;;;;;;2.47;1.02;;;16.20;99.90;;;;;;5031151;28;20026;-78
2021/10/21 02:17:48;;;;;;;1.38;1.10;;;16.30;99.90;;;;;;5030536;28;20455;-78
2021/10/21 02:20:14;;;;;;;1.38;0.98;;;16.40;99.90;;;;;;5015894;28;20108;-78
2021/10/21 02:22:41;;;;;;;1.63;1.00;;;16.40;99.90;;;;;;5014873;28;20093;-78
2021/10/21 02:25:09;;;;;;;2.30;1.20;;;16.50;99.90;;;;;;5014381;28;20100;-78
2021/10/21 02:27:35;;;;;;;2.65;1.27;;;16.50;99.90;;;;;;5012938;28;20025;-78
2021/10/21 02:30:01;;;;;;;3.72;1.55;;;16.50;99.90;;;;;;5030230;28;20029;-78
2021/10/21 02:32:26;;;;;;;2.92;1.17;;;16.50;99.90;;;;;;5014107;28;20371;-78
2021/10/21 02:34:52;;;;;;;2.38;1.38;;;16.40;99.90;;;;;;5014739;28;20033;-80
2021/10/21 02:37:18;;;;;;;1.90;1.33;;;16.30;99.90;;;;;;5014541;28;20018;-79
2021/10/21 02:39:44;;;;;;;2.78;0.98;;;16.20;99.90;;;;;;5012528;28;20042;-79
2021/10/21 02:42:09;;;;;;;1.92;1.05;;;16.20;99.90;;;;;;5013872;28;20022;-79
2021/10/21 02:44:35;;;;;;;1.70;1.00;;;16.20;99.90;;;;;;5029101;28;20030;-78
2021/10/21 02:47:01;;;;;;;2.75;1.40;;;16.20;99.90;;;;;;5013010;28;20021;-78
2021/10/21 02:49:26;;;;;;;4.07;1.88;;;16.20;99.90;;;;;;5012652;28;20030;-79
2021/10/21 02:51:52;;;;;;;1.58;1.15;;;16.20;99.90;;;;;;5029371;28;20079;-79
2021/10/21 02:54:18;;;;;;;2.22;1.23;;;16.20;99.90;;;;;;5013597;28;20024;-78
2021/10/21 02:56:43;;;;;;;3.35;1.38;;;16.20;99.90;;;;;;5012292;28;20276;-78
2021/10/21 02:59:09;;;;;;;2.10;1.10;;;16.20;99.90;;;;;;5013889;28;20029;-78
2021/10/21 03:01:35;;;;;;;2.20;1.00;;;16.20;99.90;;;;;;5012944;28;20095;-78
2021/10/21 03:04:00;;;;;;;1.00;0.80;;;16.30;99.90;;;;;;5012453;28;20076;-78
2021/10/21 03:06:26;;;;;;;1.83;0.77;;;16.30;99.90;;;;;;5011970;28;20022;-78
2021/10/21 03:08:52;;;;;;;1.38;0.90;;;16.30;99.90;;;;;;5029153;28;20029;-78
2021/10/21 03:11:18;;;;;;;2.35;0.85;;;16.40;99.90;;;;;;5013793;28;20018;-78
2021/10/21 03:13:43;;;;;;;1.02;0.80;;;16.40;99.90;;;;;;5028770;28;20033;-79
2021/10/21 03:16:09;;;;;;;1.48;0.90;;;16.40;99.70;;;;;;5028870;28;20030;-78
2021/10/21 03:18:35;;;;;;;2.03;0.52;;;16.30;99.10;;;;;;5028878;28;20459;-79
2021/10/21 03:21:00;;;;;;;2.60;0.73;;;16.40;97.80;;;;;;5012998;28;20152;-78
2021/10/21 03:23:26;;;;;;;0.93;0.50;;;16.40;97.00;;;;;;5012194;28;20108;-78
2021/10/21 03:25:53;;;;;;;1.15;0.40;;;16.40;97.00;;;;;;5013082;28;20018;-78
2021/10/21 03:28:20;;;;;;;2.97;0.40;;;16.40;96.40;;;;;;5013327;28;20068;-78
2021/10/21 03:30:46;;;;;;;1.88;0.40;;;16.30;96.40;;;;;;5028313;28;20111;-78
2021/10/21 03:33:12;;;;;;;0.77;0.30;;;16.30;96.50;;;;;;5013917;28;20077;-78
2021/10/21 03:35:39;;;;;;;2.30;0.30;;;16.20;96.60;;;;;;5012669;28;20029;-79
2021/10/21 03:38:05;;;;;;;0.40;0.40;;;16.20;96.30;;;;;;5012591;28;20014;-78
2021/10/21 03:40:31;;;;;;;3.30;0.40;;;16.20;95.80;;;;;;5011795;28;20393;-79
2021/10/21 03:42:57;;;;;;;2.90;0.70;;;16.10;95.20;;;;;;5029085;28;20029;-78
2021/10/21 03:45:22;;;;;;;4.28;0.30;;;16.10;94.20;;;;;;5012823;28;20018;-78
2021/10/21 03:47:48;;;;;;;2.60;0.60;;;16.10;91.10;;;;;;5013390;28;20040;-78
2021/10/21 03:50:14;;;;;;;3.95;0.30;;;16.10;91.30;;;;;;5013915;28;20033;-78
2021/10/21 03:52:41;;;;;;;3.35;0.40;;;16.10;90.80;;;;;;5029231;28;20083;-78
2021/10/21 03:55:07;;;;;;;2.47;0.28;;;16.10;90.90;;;;;;5014171;28;20126;-79
2021/10/21 03:57:33;;;;;;;5.18;0.13;;;16.10;91.20;;;;;;5012108;28;20062;-79
2021/10/21 03:59:58;;;;;;;5.18;0.45;;;16.00;90.00;;;;;;5013995;28;20088;-79
2021/10/21 04:02:24;;;;;;;1.65;0.30;;;16.00;88.40;;;;;;5029805;28;20064;-79
2021/10/21 04:04:51;;;;;;;2.05;0.38;;;15.90;89.00;;;;;;5029642;28;20052;-79
2021/10/21 04:07:16;;;;;;;2.67;0.28;;;15.80;88.30;;;;;;5013447;28;20441;-79
2021/10/21 04:09:42;;;;;;;3.65;0.60;;;15.80;86.30;;;;;;5029419;28;20084;-79
2021/10/21 04:12:08;;;;;;;3.45;0.82;;;15.70;83.30;;;;;;5014479;28;20096;-79
2021/10/21 04:14:33;;;;;;;3.60;0.60;;;15.60;83.80;;;;;;5029172;28;20052;-79
2021/10/21 04:16:59;;;;;;;7.50;0.82;;;15.50;82.80;;;;;;5013638;28;20022;-79
2021/10/21 04:19:25;;;;;;;8.85;0.82;;;15.50;81.60;;;;;;5014259;28;20507;-80
2021/10/21 04:21:51;;;;;;;6.53;0.95;;;15.40;82.20;;;;;;5012729;28;20122;-80
2021/10/21 04:24:16;;;;;;;8.32;0.60;;;15.40;82.60;;;;;;5013093;28;20026;-80
2021/10/21 04:26:42;;;;;;;7.70;0.65;;;15.30;82.80;;;;;;5029185;28;20430;-80
2021/10/21 04:29:08;;;;;;;7.97;0.52;;;15.30;83.00;;;;;;5013034;28;20116;-77
2021/10/21 04:31:33;;;;;;;5.57;0.90;;;15.20;83.10;;;;;;5012483;28;20030;-76
2021/10/21 04:33:59;;;;;;;5.68;0.70;;;15.20;81.60;;;;;;5015677;28;20269;-77
2021/10/21 04:36:25;;;;;;;6.55;1.05;;;15.30;81.40;;;;;;5016422;28;20026;-77
2021/10/21 04:38:50;;;;;;;5.40;0.65;;;15.30;80.20;;;;;;5017025;28;20028;-78
2021/10/21 04:41:17;;;;;;;6.07;0.60;;;15.30;80.60;;;;;;5016884;28;20029;-78
2021/10/21 04:43:43;;;;;;;8.15;0.73;;;15.20;79.20;;;;;;5016031;28;20022;-78
2021/10/21 04:46:08;;;;;;;4.57;0.60;;;15.20;79.10;;;;;;5016674;28;20500;-78
2021/10/21 04:48:34;;;;;;;4.13;0.80;;;15.30;80.00;;;;;;5017113;28;20076;-78
2021/10/21 04:51:00;;;;;;;6.13;0.63;;;15.20;79.80;;;;;;5032883;28;20061;-79
2021/10/21 04:53:25;;;;;;;8.70;0.60;;;15.20;79.80;;;;;;5017647;28;20101;-79
2021/10/21 04:55:51;;;;;;;4.78;0.90;;;15.20;79.90;;;;;;5015869;28;20356;-79
2021/10/21 04:58:17;;;;;;;6.25;0.70;;;15.20;80.40;;;;;;5017422;28;20096;-79
2021/10/21 05:00:42;;;;;;;5.15;0.82;;;15.20;78.70;;;;;;5016885;28;20030;-79
2021/10/21 05:03:10;;;;;;;10.70;1.15;;;15.20;78.90;;;;;;5017650;28;20017;-79
2021/10/21 05:05:36;;;;;;;7.13;0.80;;;15.20;78.50;;;;;;5015930;28;20026;-78
2021/10/21 05:08:03;;;;;;;5.35;0.80;;;15.20;78.40;;;;;;5032814;28;20058;-78
2021/10/21 05:10:28;;;;;;;8.77;0.93;;;15.20;79.10;;;;;;5016907;28;20030;-79
2021/10/21 05:12:54;;;;;;;8.55;0.90;;;15.20;77.90;;;;;;5016543;28;20383;-79
2021/10/21 05:15:20;;;;;;;2.88;0.40;;;15.20;79.70;;;;;;5016142;28;20026;-79
2021/10/21 05:17:45;;;;;;;4.35;0.50;;;15.10;80.30;;;;;;5015868;28;20026;-78
2021/10/21 05:20:11;;;;;;;9.73;1.05;;;15.10;79.10;;;;;;5016457;28;20037;-79
2021/10/21 05:22:37;;;;;;;7.20;0.60;;;15.10;79.60;;;;;;5015425;28;20080;-79
2021/10/21 05:25:04;;;;;;;7.60;0.80;;;15.10;80.40;;;;;;5016483;28;20026;-79
2021/10/21 05:27:30;;;;;;;6.00;0.80;;;15.10;79.90;;;;;;5032354;28;20029;-78
2021/10/21 05:29:56;;;;;;;7.90;0.70;;;15.10;78.30;;;;;;5015449;28;20026;-78
2021/10/21 05:32:22;;;;;;;6.20;0.65;;;15.10;78.20;;;;;;5016406;28;20022;-78
2021/10/21 05:34:48;;;;;;;6.90;1.08;;;15.10;78.50;;;;;;5015939;28;20023;-78
2021/10/21 05:37:14;;;;;;;8.85;0.88;;;15.10;79.20;;;;;;5016549;28;20021;-78
2021/10/21 05:39:39;;;;;;;4.72;0.60;;;15.10;77.80;;;;;;5015667;28;20487;-78
2021/10/21 05:42:05;;;;;;;6.93;1.13;;;15.10;78.20;;;;;;5016756;28;20022;-78
2021/10/21 05:44:31;;;;;;;4.00;0.90;;;15.10;77.50;;;;;;5015181;28;20069;-79
2021/10/21 05:46:56;;;;;;;5.07;0.70;;;15.00;77.80;;;;;;5032030;28;20458;-78
2021/10/21 05:49:22;;;;;;;7.95;1.33;;;15.10;76.10;;;;;;5015390;28;20026;-77
2021/10/21 05:51:48;;;;;;;9.95;1.10;;;15.10;77.00;;;;;;5016122;28;20022;-77
2021/10/21 05:54:14;;;;;;;8.32;0.93;;;15.10;76.70;;;;;;5015332;28;20470;-78
2021/10/21 05:56:40;;;;;;;5.70;1.00;;;15.10;76.90;;;;;;5014725;28;20123;-78
2021/10/21 05:59:05;;;;;;;4.82;0.70;;;15.10;77.10;;;;;;5015531;28;20053;-77
2021/10/21 06:01:31;;;;;;;8.48;0.63;;;15.10;77.00;;;;;;5016395;28;20514;-78
2021/10/21 06:03:57;;;;;;;5.88;0.60;;;15.00;76.30;;;;;;5015393;28;20053;-78
2021/10/21 06:06:23;;;;;;;7.63;0.82;;;15.00;75.60;;;;;;5015007;28;20477;-78
2021/10/21 06:08:49;;;;;;;8.95;0.75;;;15.10;76.40;;;;;;5015474;28;20028;-78
2021/10/21 06:11:15;;;;;;;5.57;0.80;;;15.00;76.50;;;;;;5014982;28;20021;-78
2021/10/21 06:13:41;;;;;;;11.00;0.90;;;15.00;77.20;;;;;;5015300;28;20026;-78
2021/10/21 06:16:08;;;;;;;6.65;0.82;;;15.00;78.00;;;;;;5031498;28;20031;-78
2021/10/21 06:18:34;;;;;;;3.42;0.52;;;14.90;78.40;;;;;;5014593;28;20025;-77
2021/10/21 06:21:06;;;;;;;7.43;0.90;;;14.90;79.00;;;;;;5014714;28;20041;-78
2021/10/21 06:23:33;;;;;;;;;;;14.90;79.90;;;;;;5014952;28;20367;-78
2021/10/21 06:25:58;;;;;;;4.85;0.52;;;14.90;78.40;;;;;;5013784;28;19908;-78
2021/10/21 06:28:24;;;;;;;6.75;1.08;;;14.90;78.70;;;;;;5015479;28;20030;-78
2021/10/21 06:30:50;;;;;;;6.30;0.52;;;14.90;78.10;;;;;;5014077;28;20545;-78
2021/10/21 06:33:15;;;;;;;7.32;0.70;;;14.90;76.90;;;;;;5015344;28;20029;-77
2021/10/21 06:35:43;;;;;;;10.70;0.73;;;14.90;76.00;;;;;;5015075;28;20097;-78
2021/10/21 06:38:09;;;;;;;4.22;0.38;;;14.90;76.00;;;;;;5015345;28;20451;-78
2021/10/21 06:40:35;;;;;;;2.38;0.50;;;15.00;75.30;;;;;;5015118;28;20033;-78
2021/10/21 06:43:00;;;;;;;3.25;0.40;;;15.00;73.30;;;;;;5015062;28;20104;-79
2021/10/21 06:45:27;;;;;;;2.45;0.50;;;15.00;74.20;;;;;;5030787;28;20025;-79
2021/10/21 06:47:59;;;;;;;3.40;0.52;;;15.00;75.00;;;;;;5014787;28;20021;-79
2021/10/21 06:50:24;;;;;;;;;;;15.00;74.10;;;;;;5015774;28;20086;-78
2021/10/21 06:52:50;;;;;;;4.50;0.38;;;15.00;74.50;;;;;;5014650;28;20354;-78
2021/10/21 06:55:16;;;;;;;1.92;0.47;;;15.00;75.40;;;;;;5014449;28;20494;-79
2021/10/21 06:57:53;;;;;;;2.67;0.40;;;15.00;75.90;;;;;;5013649;28;20029;-78
2021/10/21 07:00:20;;;;;;;3.40;0.30;;;15.00;75.70;;;;;;5015036;28;20033;-78
2021/10/21 07:02:46;;;;;;;4.45;0.52;;;14.90;76.10;;;;;;5014630;28;20107;-78
2021/10/21 07:05:13;;;;;;;3.83;0.40;;;14.80;76.50;;;;;;5014925;28;20022;-79
2021/10/21 07:07:39;;;;;;;5.55;0.40;;;14.80;76.90;;;;;;5013926;28;20029;-79
2021/10/21 07:10:06;;;;;;;2.70;0.35;;;14.70;78.50;;;;;;5014847;28;20041;-79
2021/10/21 07:12:32;;;;;;;4.30;0.32;;;14.70;79.80;;;;;;5030460;28;20022;-79
2021/10/21 07:14:59;;;;;;;2.28;0.20;;;14.60;79.80;;;;;;5029681;28;20030;-79
2021/10/21 07:17:24;;;;;;;1.58;0.45;;;14.60;78.90;;;;;;5014476;28;20101;-79
2021/10/21 07:19:50;;;;;;;3.22;0.30;;;14.60;79.20;;;;;;5029472;28;20120;-79
2021/10/21 07:22:16;;;;;;;3.45;0.30;;;14.50;79.40;;;;;;5014418;28;20029;-79
2021/10/21 07:24:43;;;;;;;6.90;0.30;;;14.50;80.10;;;;;;5029407;28;20026;-78
2021/10/21 07:27:09;;;;;;;1.58;0.30;;;14.50;80.10;;;;;;5014069;28;20026;-78
2021/10/21 07:29:35;;;;;;;1.75;0.20;;;14.40;81.00;;;;;;5029812;28;20083;-79
2021/10/21 07:32:01;;;;;;;1.58;0.35;;;14.40;81.80;;;;;;5030045;28;20026;-78
2021/10/21 07:34:27;;;;;;;3.58;0.20;;;14.40;82.00;;;;;;5015711;28;20022;-78
2021/10/21 07:36:53;;;;;;;3.00;0.30;;;14.40;82.70;;;;;;5013557;28;20018;-79
2021/10/21 07:39:22;;;;;;;1.80;0.20;;;14.30;82.40;;;;;;5014135;28;20029;-79
2021/10/21 07:41:48;;;;;;;5.13;0.20;;;14.30;82.40;;;;;;5029265;28;20034;-80
2021/10/21 07:44:14;;;;;;;4.28;0.15;;;14.20;83.10;;;;;;5029743;28;20115;-80
2021/10/21 07:46:42;;;;;;;4.65;0.50;;;14.20;83.00;;;;;;5013768;28;20030;-78
2021/10/21 07:49:08;;;;;;;4.43;0.25;;;14.20;83.90;;;;;;5014165;28;20096;-78
2021/10/21 07:51:34;;;;;;;3.58;0.20;;;14.20;84.10;;;;;;5014199;28;20026;-80
2021/10/21 07:54:00;;;;;;;2.05;0.25;;;14.10;84.90;;;;;;5029008;28;20052;-79
2021/10/21 07:56:29;;;;;;;2.53;0.30;;;14.00;84.80;;;;;;5028892;28;20475;-82
2021/10/21 07:58:55;;;;;;;2.15;0.30;;;14.00;85.80;;;;;;5013373;28;20034;-81
2021/10/21 08:01:20;;;;;;;2.03;0.30;;;14.00;86.00;;;;;;5016674;28;20079;-81
2021/10/21 08:03:46;;;;;;;3.15;0.25;;;13.90;86.30;;;;;;5021397;28;20387;-81
2021/10/21 08:06:12;;;;;;;1.60;0.32;;;13.80;86.60;;;;;;5014960;28;20377;-79
2021/10/21 08:08:38;;;;;;;1.90;0.20;;;13.80;87.10;;;;;;5018362;28;20478;-79
2021/10/21 08:11:04;;;;;;;0.45;0.10;;;13.70;87.60;;;;;;5024077;28;20021;-79
2021/10/21 08:13:30;;;;;;;0.70;0.10;;;13.70;87.90;;;;;;5025704;28;20045;-79
2021/10/21 08:15:56;;;;;;;2.72;0.15;;;13.60;88.70;;;;;;5025408;28;20442;-78
2021/10/21 08:18:23;;;;;;;2.35;0.20;;;13.60;89.10;;;;;;5025684;28;20029;-79
2021/10/21 08:20:49;;;;;;;6.65;0.55;;;13.60;89.20;;;;;;5025960;28;20051;-79
2021/10/21 08:23:16;;;;;;;1.33;0.10;;;13.70;89.80;;;;;;5025989;28;20076;-79
2021/10/21 08:25:41;;;;;;;1.95;0.35;;;13.60;89.50;;;;;;5024191;28;20493;-79
2021/10/21 08:28:08;;;;;;;2.63;0.20;;;13.60;90.00;;;;;;5026264;28;20100;-79
2021/10/21 08:30:38;;;;;;;0.60;0.25;;;13.60;90.20;;;;;;5033352;28;20076;-80
2021/10/21 08:33:04;;;;;;;1.52;0.20;;;13.50;90.60;;;;;;5035600;28;20021;-79
2021/10/21 08:35:30;;;;;;;2.50;0.30;;;13.40;90.70;;;;;;5036325;28;20443;-79
2021/10/21 08:37:58;;;;;;;3.50;0.95;;;13.40;90.80;;;;;;5035822;28;20128;-79
2021/10/21 08:40:24;;;;;;;0.93;0.25;;;13.50;90.80;;;;;;5037105;28;20029;-79
2021/10/21 08:42:50;;;;;;;0.40;0.20;;;13.40;90.70;;;;;;5035568;28;20029;-80
2021/10/21 08:45:15;;;;;;;3.17;0.28;;;13.40;90.90;;;;;;5035944;28;20025;-80
2021/10/21 08:47:44;;;;;;;1.65;0.20;;;13.40;90.80;;;;;;5025199;28;20524;-79
2021/10/21 08:50:12;;;;;;;0.38;0.10;;;13.40;90.90;;;;;;5026705;28;20022;-80
2021/10/21 08:52:38;;;;;;;1.58;0.20;;;13.30;90.60;;;;;;5015350;28;20022;-78
2021/10/21 08:55:05;;;;;;;3.63;0.30;;;13.30;90.80;;;;;;5015847;28;20053;-78
2021/10/21 08:57:32;;;;;;;2.20;0.10;;;13.30;90.90;;;;;;5017719;28;20038;-78
2021/10/21 08:59:58;;;;;;;2.22;0.20;;;13.30;90.50;;;;;;5016206;28;20387;-78
2021/10/21 09:02:34;;;;;;;1.60;0.13;;;13.30;90.20;;;;;;5015054;28;20033;-81
2021/10/21 09:07:56;;;;;;;0.73;0.20;;;13.40;89.40;;;;;;5015824;28;20014;-83
2021/10/21 09:10:22;;;;;;;0.80;0.28;;;13.40;88.90;;;;;;5017143;28;20018;-79
2021/10/21 09:12:49;;;;;;;2.83;0.20;;;13.40;88.00;;;;;;5014660;28;20030;-80
2021/10/21 09:15:17;;;;;;;2.60;0.30;;;13.50;86.40;;;;;;5015611;28;20036;-81
2021/10/21 09:17:44;;;;;;;2.53;0.25;;;13.50;86.30;;;;;;5016294;28;20013;-82
2021/10/21 09:20:39;;;;;;;1.42;0.30;;;13.50;85.80;;;;;;5031667;28;20025;-81
2021/10/21 09:23:17;;;;;;;0.95;0.30;;;13.40;86.00;;;;;;5016144;28;20097;-80
2021/10/21 09:25:47;;;;;;;1.70;0.30;;;13.40;86.20;;;;;;5048681;28;20025;-79
2021/10/21 09:28:20;;;;;;;1.88;0.35;;;13.40;86.70;;;;;;5016541;28;20022;-85
2021/10/21 09:30:52;;;;;;;3.13;0.15;;;13.30;86.90;;;;;;5016415;28;20053;-79
2021/10/21 09:33:18;;;;;;;2.10;0.30;;;13.20;86.80;;;;;;5015047;28;20475;-83
2021/10/21 09:35:54;;;;;;;2.88;0.22;;;13.20;86.70;;;;;;5031935;28;20109;-85
2021/10/21 09:38:26;;;;;;;4.05;0.20;;;13.20;87.40;;;;;;5016938;28;20490;-85
2021/10/21 09:40:52;;;;;;;1.17;0.13;;;13.20;87.40;;;;;;5025264;28;20073;-85
2021/10/21 09:43:28;;;;;;;1.23;0.10;;;13.20;87.30;;;;;;5020156;28;20057;-86
2021/10/21 09:45:54;;;;;;;1.98;0.20;;;13.20;88.00;;;;;;5014613;28;20030;-79
2021/10/21 09:48:20;;;;;;;1.45;0.30;;;13.30;88.70;;;;;;5015760;28;20172;-78
2021/10/21 09:50:47;;;;;;;2.13;0.30;;;13.20;88.70;;;;;;5013997;28;20034;-79
2021/10/21 09:53:20;;;;;;;1.30;0.35;;;13.30;88.90;;;;;;5014442;28;20053;-77
2021/10/21 09:55:50;;;;;;;1.95;0.20;;;13.40;89.60;;;;;;5013421;28;20049;-83
2021/10/21 09:58:19;;;;;;;0.45;0.15;;;13.40;89.50;;;;;;5031388;28;20030;-81
2021/10/21 10:00:45;;;;;;;2.28;0.25;;;13.30;89.20;;;;;;5015363;28;20038;-81
2021/10/21 10:03:29;;;;;;;2.55;0.28;;;13.40;89.50;;;;;;5015575;28;20022;-80
2021/10/21 10:05:55;;;;;;;2.95;0.30;;;13.50;88.90;;;;;;5015398;28;20030;-80
2021/10/21 10:08:22;;;;;;;3.92;0.40;;;13.60;88.70;;;;;;5030955;28;20026;-79
2021/10/21 10:10:50;;;;;;;2.05;0.30;;;13.60;87.90;;;;;;5030698;28;20071;-77
2021/10/21 10:13:20;;;;;;;2.35;0.20;;;13.70;87.60;;;;;;5030688;28;20025;-77
2021/10/21 10:15:47;;;;;;;0.82;0.22;;;13.70;87.10;;;;;;5030324;28;20088;-81
2021/10/21 10:18:32;;;;;;;2.42;0.40;;;13.70;87.20;;;;;;5015236;28;20029;-79
2021/10/21 10:21:20;;;;;;;8.05;0.50;;;13.70;86.30;;;;;;5030465;28;20041;-79
2021/10/21 10:24:05;;;;;;;4.43;0.70;;;13.50;86.60;;;;;;5029958;28;20030;-81
2021/10/21 10:26:43;;;;;;;2.40;0.50;;;13.50;87.00;;;;;;5013842;28;20519;-80
2021/10/21 10:29:31;;;;;;;1.92;0.40;;;13.50;86.30;;;;;;5013607;28;20029;-79
2021/10/21 10:31:59;;;;;;;5.45;0.30;;;13.50;86.20;;;;;;5013973;28;20030;-80
2021/10/21 10:34:37;;;;;;;3.65;0.50;;;13.60;85.70;;;;;;5013973;28;20482;-79
2021/10/21 10:37:17;;;;;;;4.63;0.40;;;13.70;85.60;;;;;;5014293;28;20026;-79
2021/10/21 10:39:45;;;;;;;3.67;0.63;;;13.70;84.70;;;;;;5013766;28;20542;-80
2021/10/21 10:42:12;;;;;;;3.65;0.73;;;13.90;85.10;;;;;;5013641;28;20036;-80
2021/10/21 10:44:37;;;;;;;4.30;0.57;;;14.00;84.50;;;;;;5013670;28;20021;-80
2021/10/21 10:47:04;;;;;;;6.28;0.47;;;14.20;82.80;;;;;;5014417;28;20029;-79
2021/10/21 10:49:41;;;;;;;5.60;0.50;;;14.20;82.50;;;;;;5014642;28;20026;-80
2021/10/21 10:52:11;;;;;;;2.92;0.32;;;14.10;81.60;;;;;;5013673;28;20121;-79
2021/10/21 10:55:02;;;;;;;2.67;0.30;;;14.10;81.40;;;;;;5013503;28;20334;-80
2021/10/21 10:57:28;;;;;;;3.20;0.40;;;14.00;81.10;;;;;;5030867;28;20042;-79
2021/10/21 10:59:55;;;;;;;3.65;0.40;;;14.00;81.60;;;;;;5014107;28;20035;-80
2021/10/21 11:02:27;;;;;;;2.05;0.40;;;13.90;82.10;;;;;;5014161;28;20030;-80
2021/10/21 11:04:52;;;;;;;;;;;14.00;81.20;;;;;;5013529;28;20076;-80
2021/10/21 11:07:19;;;;;;;1.55;0.30;;;14.10;80.70;;;;;;5030140;28;19909;-80
2021/10/21 11:09:45;;;;;;;2.83;0.52;;;14.10;81.50;;;;;;5014627;28;20422;-79
2021/10/21 11:12:21;;;;;;;2.65;0.70;;;14.10;80.70;;;;;;5012862;28;20063;-80
2021/10/21 11:14:54;;;;;;;3.20;0.40;;;14.20;79.60;;;;;;5013526;28;20429;-82
2021/10/21 11:17:42;;;;;;;2.58;0.30;;;14.30;80.10;;;;;;5014178;28;20022;-80
2021/10/21 11:20:31;;;;;;;3.42;0.65;;;14.30;78.70;;;;;;5012884;28;20036;-79
2021/10/21 11:23:06;;;;;;;1.95;0.43;;;14.40;78.80;;;;;;5015957;28;20034;-79
2021/10/21 11:25:38;;;;;;;2.25;0.95;;;14.40;77.40;;;;;;5013044;28;20026;-79
2021/10/21 11:28:05;;;;;;;5.93;0.65;;;14.50;76.70;;;;;;5012402;28;20038;-80
2021/10/21 11:30:39;;;;;;;2.28;0.43;;;14.50;77.80;;;;;;5013797;28;20029;-80
2021/10/21 11:33:07;;;;;;;2.72;0.68;;;14.60;75.60;;;;;;5013552;28;20033;-79
2021/10/21 11:35:39;;;;;;;3.35;0.43;;;14.70;75.70;;;;;;5046020;28;20109;-79
2021/10/21 11:38:15;;;;;;;5.78;0.70;;;14.70;75.40;;;;;;5012227;28;20079;-79
2021/10/21 11:40:44;;;;;;;3.47;0.55;;;14.80;74.60;;;;;;5045646;28;20050;-77
2021/10/21 11:43:25;;;;;;;2.58;0.52;;;14.90;73.50;;;;;;5011978;28;20468;-75
2021/10/21 11:45:59;;;;;;;4.63;0.35;;;14.90;72.30;;;;;;5012086;28;20026;-77
2021/10/21 11:48:32;;;;;;;3.50;0.47;;;14.90;72.80;;;;;;5013545;28;20100;-77
2021/10/21 11:50:59;;;;;;;1.50;0.30;;;14.90;72.90;;;;;;5012247;28;20065;-78
2021/10/21 11:53:27;;;;;;;2.72;0.40;;;14.80;72.90;;;;;;5012924;28;20463;-79
2021/10/21 11:55:55;;;;;;;5.15;0.30;;;15.00;71.40;;;;;;5013068;28;20475;-79
2021/10/21 11:58:25;;;;;;;5.03;0.70;;;15.30;68.00;;;;;;5011678;28;20030;-75
2021/10/21 12:01:10;;;;;;;2.10;0.43;;;15.60;67.10;;;;;;5011586;28;20037;-75
2021/10/21 12:03:36;;;;;;;3.03;0.40;;;15.70;65.80;;;;;;5012440;28;20029;-75
2021/10/21 12:06:04;;;;;;;2.40;0.30;;;15.90;65.40;;;;;;5013267;28;20044;-77
2021/10/21 12:08:30;;;;;;;1.13;0.47;;;16.00;63.80;;;;;;5013089;28;20034;-74
2021/10/21 12:10:58;;;;;;;2.50;0.50;;;16.20;64.20;;;;;;5011517;28;20125;-75
2021/10/21 12:13:28;;;;;;;4.88;0.50;;;16.40;63.60;;;;;;5011782;28;20026;-77
2021/10/21 12:15:57;;;;;;;4.18;0.45;;;16.60;62.90;;;;;;5011006;28;20030;-77
2021/10/21 12:18:26;;;;;;;6.18;0.50;;;16.60;61.10;;;;;;5012561;28;20033;-76
2021/10/21 12:20:53;;;;;;;5.70;0.60;;;16.80;61.20;;;;;;5012341;28;20038;-77
2021/10/21 12:23:31;;;;;;;2.53;0.40;;;16.80;59.80;;;;;;5012503;28;20485;-77
2021/10/21 12:26:09;;;;;;;4.22;0.50;;;16.90;59.60;;;;;;5011637;28;20030;-75
2021/10/21 12:28:45;;;;;;;1.30;0.30;;;16.90;57.60;;;;;;5011955;28;20037;-76
2021/10/21 12:31:23;;;;;;;4.50;0.65;;;17.10;58.80;;;;;;5011550;28;20087;-78
2021/10/21 12:34:01;;;;;;;2.75;0.50;;;17.40;57.60;;;;;;5011698;28;20045;-78
2021/10/21 12:36:40;;;;;;;3.20;0.63;;;17.10;57.80;;;;;;5028765;28;20026;-79
2021/10/21 12:39:09;;;;;;;4.28;0.30;;;17.10;58.80;;;;;;5011652;28;20022;-80
2021/10/21 12:41:53;;;;;;;1.25;0.50;;;17.10;58.90;;;;;;5013120;28;20026;-78
2021/10/21 12:44:21;;;;;;;2.30;0.22;;;17.30;58.20;;;;;;5008269;28;20018;-77
2021/10/21 12:46:47;;;;;;;4.07;0.55;;;17.10;59.20;;;;;;5027913;28;20026;-76
2021/10/21 12:49:13;;;;;;;1.45;0.30;;;16.70;59.00;;;;;;5027157;28;20025;-80
2021/10/21 12:51:41;;;;;;;4.80;0.50;;;16.40;61.20;;;;;;5028233;28;20030;-76
2021/10/21 12:54:25;;;;;;;2.08;0.30;;;16.30;61.90;;;;;;5029590;28;20021;-77